createdAt,value
2018-03-11T00:00:54.168Z,10.94
2018-03-11T00:06:58.670Z,11.24
2018-03-11T00:13:04.154Z,11.19
2018-03-11T00:19:08.790Z,11.16
2018-03-11T00:25:13.289Z,11.27
2018-03-11T00:31:17.919Z,11.25
2018-03-11T00:37:22.477Z,11.22
2018-03-11T00:43:27.869Z,11.22
2018-03-11T00:49:32.367Z,11.20
2018-03-11T00:55:37.650Z,10.96
2018-03-11T01:01:42.134Z,11.21
2018-03-11T01:07:47.661Z,11.03
2018-03-11T01:13:52.309Z,10.99
2018-03-11T01:19:57.601Z,11.09
2018-03-11T01:26:02.096Z,11.05
2018-03-11T01:32:07.391Z,11.12
2018-03-11T01:38:12.906Z,11.14
2018-03-11T01:44:17.482Z,11.05
2018-03-11T01:50:22.229Z,10.88
2018-03-11T01:56:27.505Z,10.96
2018-03-11T02:02:31.997Z,11.02
2018-03-11T02:08:36.931Z,11.20
2018-03-11T02:14:41.439Z,11.08
2018-03-11T02:20:46.567Z,11.07
2018-03-11T02:26:52.575Z,11.04
2018-03-11T02:32:57.324Z,11.09
2018-03-11T02:39:01.847Z,11.02
2018-03-11T02:45:06.422Z,11.09
2018-03-11T02:51:11.039Z,11.14
2018-03-11T02:57:15.606Z,10.90
2018-03-11T03:03:20.886Z,11.01
2018-03-11T03:09:25.591Z,10.89
2018-03-11T03:15:30.168Z,10.91
2018-03-11T03:21:34.671Z,10.94
2018-03-11T03:27:39.231Z,10.93
2018-03-11T03:33:43.802Z,10.97
2018-03-11T03:39:48.661Z,10.94
2018-03-11T03:45:53.399Z,10.99
2018-03-11T03:51:57.884Z,11.12
2018-03-11T03:58:02.384Z,11.01
2018-03-11T04:04:06.960Z,10.88
2018-03-11T04:10:11.475Z,11.04
2018-03-11T04:16:17.044Z,10.90
2018-03-11T04:22:21.964Z,10.90
2018-03-11T04:28:26.475Z,10.88
2018-03-11T04:34:31.197Z,10.83
2018-03-11T04:40:36.513Z,10.79
2018-03-11T04:46:41.072Z,10.81
2018-03-11T04:52:45.764Z,10.86
2018-03-11T04:58:51.198Z,10.87
2018-03-11T05:04:55.739Z,10.76
2018-03-11T05:11:00.326Z,10.95
2018-03-11T05:17:04.949Z,11.01
2018-03-11T05:23:09.516Z,10.88
2018-03-11T05:29:14.119Z,10.98
2018-03-11T05:35:19.123Z,10.85
2018-03-11T05:41:23.960Z,11.09
2018-03-11T05:47:28.715Z,11.09
2018-03-11T05:53:33.210Z,11.10
2018-03-11T05:59:38.664Z,11.04
2018-03-11T06:05:43.214Z,11.08
2018-03-11T06:11:47.772Z,11.08
2018-03-11T06:17:52.640Z,10.98
2018-03-11T06:23:57.197Z,10.84
2018-03-11T06:30:01.698Z,10.77
2018-03-11T06:36:06.190Z,10.74
2018-03-11T06:42:10.662Z,10.78
2018-03-11T06:48:16.187Z,10.73
2018-03-11T06:54:20.771Z,10.85
2018-03-11T07:00:25.320Z,11.16
2018-03-11T07:06:29.858Z,11.37
2018-03-11T07:12:34.365Z,11.59
2018-03-11T07:18:38.831Z,11.94
2018-03-11T07:24:44.128Z,12.09
2018-03-11T07:30:48.723Z,11.90
2018-03-11T07:36:53.269Z,12.17
2018-03-11T07:42:57.770Z,12.34
2018-03-11T07:49:02.254Z,12.61
2018-03-11T07:55:06.745Z,12.84
2018-03-11T08:01:11.315Z,13.86
2018-03-11T08:07:15.991Z,14.87
2018-03-11T08:13:22.306Z,15.04
2018-03-11T08:19:26.836Z,16.95
2018-03-11T08:25:31.415Z,17.63
2018-03-11T08:31:35.955Z,17.34
2018-03-11T08:37:41.337Z,17.43
2018-03-11T08:43:47.154Z,17.77
2018-03-11T08:49:51.747Z,17.83
2018-03-11T08:55:56.999Z,18.10
2018-03-11T09:02:01.503Z,19.72
2018-03-11T09:08:06.001Z,19.56
2018-03-11T09:14:10.491Z,18.46
2018-03-11T09:20:15.764Z,18.95
2018-03-11T09:26:21.631Z,21.40
2018-03-11T09:32:26.944Z,23.07
2018-03-11T09:38:31.419Z,22.55
2018-03-11T09:44:35.988Z,22.01
2018-03-11T09:50:40.482Z,19.70
2018-03-11T09:56:44.985Z,18.48
2018-03-11T10:02:50.227Z,17.76
2018-03-11T10:08:54.783Z,17.21
2018-03-11T10:15:00.051Z,16.67
2018-03-11T10:21:04.618Z,17.67
2018-03-11T10:27:09.201Z,18.57
2018-03-11T10:33:15.023Z,20.42
2018-03-11T10:39:19.666Z,19.97
2018-03-11T10:45:24.357Z,19.38
2018-03-11T10:51:28.842Z,21.46
2018-03-11T10:57:34.187Z,24.25
2018-03-11T11:03:38.854Z,25.43
2018-03-11T11:09:43.376Z,26.92
2018-03-11T11:15:47.971Z,26.86
2018-03-11T11:21:52.719Z,27.71
2018-03-11T11:27:57.246Z,27.69
2018-03-11T11:34:01.885Z,26.67
2018-03-11T11:40:06.545Z,25.39
2018-03-11T11:46:11.928Z,23.18
2018-03-11T11:52:16.492Z,21.77
2018-03-11T11:58:22.055Z,20.54
2018-03-11T12:04:26.569Z,19.71
2018-03-11T12:10:31.205Z,19.32
2018-03-11T12:16:35.695Z,19.10
2018-03-11T12:22:40.238Z,18.99
2018-03-11T12:28:44.684Z,19.52
2018-03-11T12:34:49.367Z,19.60
2018-03-11T12:40:54.647Z,19.08
2018-03-11T12:46:59.151Z,18.93
2018-03-11T12:53:03.657Z,18.96
2018-03-11T12:59:08.130Z,19.03
2018-03-11T13:05:13.411Z,18.98
2018-03-11T13:11:19.472Z,18.56
2018-03-11T13:17:24.273Z,18.55
2018-03-11T13:23:28.806Z,18.72
2018-03-11T13:29:33.331Z,18.77
2018-03-11T13:35:37.971Z,18.86
2018-03-11T13:41:42.751Z,18.61
2018-03-11T13:47:47.698Z,18.68
2018-03-11T13:53:53.868Z,18.87
2018-03-11T13:59:58.471Z,19.20
2018-03-11T14:06:03.099Z,20.06
2018-03-11T14:12:08.431Z,20.59
2018-03-11T14:18:12.893Z,20.45
2018-03-11T14:24:17.366Z,21.83
2018-03-11T14:30:21.958Z,22.05
2018-03-11T14:36:27.250Z,21.61
2018-03-11T14:42:31.731Z,21.12
2018-03-11T14:48:36.210Z,21.13
2018-03-11T14:54:40.875Z,20.94
2018-03-11T15:00:45.422Z,20.43
2018-03-11T15:06:50.199Z,20.17
2018-03-11T15:12:54.828Z,19.96
2018-03-11T15:18:59.301Z,19.75
2018-03-11T15:25:04.538Z,19.37
2018-03-11T15:31:09.118Z,19.30
2018-03-11T15:37:13.616Z,19.23
2018-03-11T15:43:19.750Z,19.42
2018-03-11T15:49:24.530Z,19.31
2018-03-11T15:55:29.019Z,18.90
2018-03-11T16:01:34.416Z,18.44
2018-03-11T16:07:39.805Z,18.28
2018-03-11T16:13:45.104Z,18.02
2018-03-11T16:19:50.594Z,18.05
2018-03-11T16:25:55.141Z,18.07
2018-03-11T16:31:59.618Z,17.65
2018-03-11T16:38:04.110Z,16.94
2018-03-11T16:44:08.569Z,16.54
2018-03-11T16:50:13.038Z,16.23
2018-03-11T16:56:18.010Z,15.83
2018-03-11T17:02:22.943Z,15.57
2018-03-11T17:08:27.419Z,15.55
2018-03-11T17:14:32.698Z,15.47
2018-03-11T17:20:37.404Z,15.18
2018-03-11T17:26:42.774Z,15.07
2018-03-11T17:32:47.350Z,14.98
2018-03-11T17:38:51.887Z,14.96
2018-03-11T17:44:57.186Z,14.81
2018-03-11T17:51:01.583Z,14.49
2018-03-11T17:57:06.239Z,14.67
2018-03-11T18:03:10.767Z,14.64
2018-03-11T18:09:15.388Z,14.53
2018-03-11T18:15:20.912Z,14.37
2018-03-11T18:21:26.182Z,14.18
2018-03-11T18:27:30.678Z,14.13
2018-03-11T18:33:35.114Z,13.96
2018-03-11T18:39:39.574Z,14.05
2018-03-11T18:45:44.042Z,14.04
2018-03-11T18:51:50.124Z,14.03
2018-03-11T18:57:55.376Z,13.81
2018-03-11T19:03:59.888Z,13.75
2018-03-11T19:10:04.444Z,13.69
2018-03-11T19:16:08.962Z,13.63
2018-03-11T19:22:13.456Z,13.72
2018-03-11T19:28:18.899Z,13.88
2018-03-11T19:34:23.595Z,13.96
2018-03-11T19:40:28.069Z,13.98
2018-03-11T19:46:33.330Z,14.07
2018-03-11T19:52:37.810Z,13.94
2018-03-11T19:58:42.294Z,13.96
2018-03-11T20:04:47.218Z,13.95
2018-03-11T20:10:52.169Z,13.85
2018-03-11T20:16:56.645Z,13.75
2018-03-11T20:23:01.109Z,13.74
2018-03-11T20:29:05.680Z,13.90
2018-03-11T20:35:10.198Z,13.76
2018-03-11T20:41:15.809Z,13.64
2018-03-11T20:47:21.725Z,13.91
2018-03-11T20:53:27.005Z,13.94
2018-03-11T20:59:32.245Z,13.95
2018-03-11T21:05:36.761Z,13.49
2018-03-11T21:11:41.238Z,13.20
2018-03-11T21:17:47.707Z,12.94
2018-03-11T21:23:52.347Z,12.66
2018-03-11T21:29:56.858Z,12.64
2018-03-11T21:36:02.170Z,12.66
2018-03-11T21:42:06.647Z,12.49
2018-03-11T21:48:11.139Z,12.40
2018-03-11T21:54:15.846Z,12.27
2018-03-11T22:00:21.064Z,12.02
2018-03-11T22:06:25.667Z,12.10
2018-03-11T22:12:30.953Z,12.10
2018-03-11T22:18:35.532Z,11.95
2018-03-11T22:24:39.997Z,11.73
2018-03-11T22:30:44.487Z,11.73
2018-03-11T22:36:49.873Z,11.74
2018-03-11T22:42:54.429Z,11.80
2018-03-11T22:48:58.888Z,11.64
2018-03-11T22:55:04.187Z,11.43
2018-03-11T23:01:08.727Z,11.14
2018-03-11T23:07:13.207Z,11.04
2018-03-11T23:13:18.993Z,10.72
2018-03-11T23:19:23.607Z,10.69
2018-03-11T23:25:29.541Z,10.71
2018-03-11T23:31:33.954Z,10.57
2018-03-11T23:37:38.357Z,10.80
2018-03-11T23:43:43.726Z,11.12
2018-03-11T23:49:48.439Z,11.07
2018-03-11T23:55:52.909Z,10.91
